Time;durP1;ratioP1;P1;durP2;ratioP2;P2;SDS_P1;SDS_P2;PMS_P1;PMS_P2;Temp;Humidity;BMP_temperature;BMP_pressure;BME280_temperature;BME280_humidity;BME280_pressure;Samples;Min_cycle;Max_cycle;Signal;HPM_P1;HPM_P2
2021/08/27 00:01:47;;;;;;;1999.90;999.90;;;;;;;17.87;100.00;95156.25;4991118;28;20583;-69
2021/08/27 00:04:14;;;;;;;1999.90;999.90;;;;;;;17.90;100.00;95163.44;4998399;28;20202;-69
2021/08/27 00:06:41;;;;;;;1999.90;999.90;;;;;;;17.92;100.00;95158.59;5030697;28;20198;-69
2021/08/27 00:09:08;;;;;;;1999.90;999.90;;;;;;;17.99;100.00;95161.34;5030236;28;20778;-69
2021/08/27 00:11:37;;;;;;;1999.90;999.90;;;;;;;18.02;100.00;95165.94;5010568;28;20206;-69
2021/08/27 00:14:04;;;;;;;1999.90;999.90;;;;;;;17.95;100.00;95159.78;5010524;28;20230;-68
2021/08/27 00:16:31;;;;;;;1999.90;999.90;;;;;;;17.99;100.00;95165.84;5010453;28;20256;-69
2021/08/27 00:18:58;;;;;;;1999.90;999.90;;;;;;;17.94;100.00;95166.13;5010380;28;20225;-69
2021/08/27 00:21:25;;;;;;;1999.90;999.90;;;;;;;17.99;100.00;95174.50;5010676;28;20203;-69
2021/08/27 00:23:53;;;;;;;1999.90;999.90;;;;;;;17.86;100.00;95175.78;5010388;28;20736;-70
2021/08/27 00:26:20;;;;;;;1999.90;999.90;;;;;;;17.84;100.00;95172.72;5010216;28;20289;-68
2021/08/27 00:28:48;;;;;;;1999.90;999.90;;;;;;;17.85;100.00;95162.97;5010192;28;20230;-69
2021/08/27 00:31:15;;;;;;;1999.90;999.90;;;;;;;17.80;100.00;95161.38;5010450;28;20272;-68
2021/08/27 00:33:42;;;;;;;1999.90;999.90;;;;;;;17.83;100.00;95163.31;5010072;28;20203;-68
2021/08/27 00:36:10;;;;;;;1999.90;999.90;;;;;;;17.86;100.00;95157.38;5010366;28;20566;-68
2021/08/27 00:38:37;;;;;;;1999.90;999.90;;;;;;;17.86;100.00;95165.25;5009921;28;20317;-68
2021/08/27 00:41:04;;;;;;;1999.90;999.90;;;;;;;17.85;100.00;95161.09;5010053;28;20268;-66
2021/08/27 00:43:31;;;;;;;1999.90;999.90;;;;;;;17.85;100.00;95174.25;5010303;28;20271;-69
2021/08/27 00:45:59;;;;;;;1999.90;999.90;;;;;;;17.86;100.00;95159.22;5010269;28;20198;-69
2021/08/27 00:48:27;;;;;;;1999.90;999.90;;;;;;;17.82;100.00;95158.41;5009955;28;20208;-68
2021/08/27 00:50:54;;;;;;;1999.90;999.90;;;;;;;17.76;100.00;95149.28;5010144;28;20202;-69
2021/08/27 00:53:21;;;;;;;1999.90;999.90;;;;;;;17.87;100.00;95152.88;5009609;28;20208;-69
2021/08/27 00:55:48;;;;;;;1999.90;999.90;;;;;;;17.85;100.00;95145.31;5009732;28;20285;-69
2021/08/27 00:58:16;;;;;;;1999.90;999.90;;;;;;;17.86;100.00;95156.59;5010001;28;20226;-68
2021/08/27 01:00:44;;;;;;;1999.90;999.90;;;;;;;17.82;100.00;95166.28;5009907;28;20202;-68
2021/08/27 01:03:14;;;;;;;1999.90;999.90;;;;;;;17.82;100.00;95163.66;5009901;28;20206;-67
2021/08/27 01:05:45;;;;;;;1999.90;999.90;;;;;;;17.83;100.00;95171.19;5025403;28;20606;-68
2021/08/27 01:08:20;;;;;;;1999.90;999.90;;;;;;;17.81;100.00;95172.66;5029644;28;20194;-68
2021/08/27 01:10:53;;;;;;;1999.90;999.90;;;;;;;17.87;100.00;95172.03;5016056;28;20775;-69
2021/08/27 01:13:28;;;;;;;1999.90;999.90;;;;;;;17.89;100.00;95169.81;5009695;28;20270;-68
2021/08/27 01:16:02;;;;;;;1999.90;999.90;;;;;;;17.95;100.00;95167.66;5009608;28;20566;-68
2021/08/27 01:18:39;;;;;;;1999.90;999.90;;;;;;;17.88;100.00;95170.91;5009519;28;20213;-68
2021/08/27 01:21:26;;;;;;;1999.90;999.90;;;;;;;17.93;100.00;95170.63;5009582;28;20765;-69
2021/08/27 01:23:55;;;;;;;1999.90;999.90;;;;;;;17.90;100.00;95166.06;5009779;28;20195;-69
2021/08/27 01:26:27;;;;;;;1999.90;999.90;;;;;;;17.96;100.00;95161.31;5009704;28;20198;-70
2021/08/27 01:28:56;;;;;;;1999.90;999.90;;;;;;;17.98;100.00;95162.47;5009326;28;20183;-70
2021/08/27 01:31:33;;;;;;;1999.90;999.90;;;;;;;18.05;100.00;95157.34;5009202;28;20283;-70
2021/08/27 01:34:15;;;;;;;1999.90;999.90;;;;;;;18.12;100.00;95159.34;5009659;28;20224;-68
2021/08/27 01:36:46;;;;;;;1999.90;999.90;;;;;;;18.10;100.00;95160.78;5009324;28;20190;-68
2021/08/27 01:39:16;;;;;;;1999.90;999.90;;;;;;;18.01;100.00;95161.03;5009180;28;20589;-68
2021/08/27 01:41:47;;;;;;;1999.90;999.90;;;;;;;17.98;100.00;95166.97;5009555;28;20226;-68
2021/08/27 01:44:15;;;;;;;1999.90;999.90;;;;;;;17.92;100.00;95169.13;5009276;28;20233;-68
2021/08/27 01:46:44;;;;;;;1999.90;999.90;;;;;;;17.90;100.00;95176.59;5009098;28;20202;-68
2021/08/27 01:49:14;;;;;;;1999.90;999.90;;;;;;;17.91;100.00;95172.84;5009165;28;20193;-69
2021/08/27 01:51:44;;;;;;;1999.90;999.90;;;;;;;17.96;100.00;95169.19;5009174;28;20674;-69
2021/08/27 01:54:12;;;;;;;1999.90;999.90;;;;;;;17.95;100.00;95170.28;5009864;28;20202;-69
2021/08/27 01:56:40;;;;;;;1999.90;999.90;;;;;;;17.92;100.00;95174.38;5009248;28;20202;-69
2021/08/27 01:59:10;;;;;;;1999.90;999.90;;;;;;;17.89;100.00;95166.41;5009187;28;20222;-69
2021/08/27 02:01:38;;;;;;;1999.90;999.90;;;;;;;17.85;100.00;95174.25;5006055;28;20686;-70
2021/08/27 02:04:10;;;;;;;1999.90;999.90;;;;;;;17.94;100.00;95176.66;5010353;28;20578;-70
2021/08/27 02:06:38;;;;;;;1999.90;999.90;;;;;;;17.95;100.00;95176.31;5011966;28;20193;-69
2021/08/27 02:09:08;;;;;;;1999.90;999.90;;;;;;;17.99;100.00;95169.25;5012487;28;20718;-69
2021/08/27 02:11:37;;;;;;;1999.90;999.90;;;;;;;18.08;100.00;95163.03;5012316;28;20206;-71
2021/08/27 02:14:05;;;;;;;1999.90;999.90;;;;;;;18.04;100.00;95158.44;5011387;28;20209;-69
2021/08/27 02:16:32;;;;;;;1999.90;999.90;;;;;;;18.04;100.00;95147.91;5012208;28;20217;-70
2021/08/27 02:18:59;;;;;;;1999.90;999.90;;;;;;;18.13;100.00;95152.22;5012828;28;20663;-69
2021/08/27 02:21:32;;;;;;;1999.90;999.90;;;;;;;18.11;100.00;95151.78;5012678;28;20293;-69
2021/08/27 02:24:03;;;;;;;1999.90;999.90;;;;;;;18.14;100.00;95156.34;5012174;28;20191;-70
2021/08/27 02:26:35;;;;;;;1999.90;999.90;;;;;;;18.18;100.00;95170.34;4992683;28;20242;-70
2021/08/27 02:29:04;;;;;;;1999.90;999.90;;;;;;;18.13;100.00;95168.00;4992935;28;20194;-69
2021/08/27 02:31:32;;;;;;;1999.90;999.90;;;;;;;18.12;100.00;95166.47;4992914;28;20286;-70
2021/08/27 02:34:00;;;;;;;1999.90;999.90;;;;;;;18.16;100.00;95169.91;4992704;28;20593;-69
2021/08/27 02:36:28;;;;;;;1999.90;999.90;;;;;;;18.10;100.00;95172.06;4992938;28;20649;-70
2021/08/27 02:38:59;;;;;;;1999.90;999.90;;;;;;;18.14;100.00;95175.53;4992832;28;20258;-70
2021/08/27 02:41:26;;;;;;;1999.90;999.90;;;;;;;18.15;100.00;95168.38;4992877;28;20205;-68
2021/08/27 02:43:54;;;;;;;1999.90;999.90;;;;;;;18.12;100.00;95172.50;4992359;28;20667;-69
2021/08/27 02:46:22;;;;;;;1999.90;999.90;;;;;;;18.13;100.00;95173.25;4992767;28;20583;-70
2021/08/27 02:48:49;;;;;;;1999.90;999.90;;;;;;;18.13;100.00;95168.00;4992743;28;20199;-70
2021/08/27 02:51:21;;;;;;;1999.90;999.90;;;;;;;18.09;100.00;95162.66;4992156;28;20674;-69
2021/08/27 02:53:53;;;;;;;1999.90;999.90;;;;;;;18.06;100.00;95155.47;5002068;28;20310;-71
2021/08/27 02:56:25;;;;;;;1999.90;999.90;;;;;;;17.96;100.00;95158.66;5012230;28;20261;-79
2021/08/27 02:58:55;;;;;;;1999.90;999.90;;;;;;;18.04;100.00;95168.19;5011435;28;20249;-67
2021/08/27 03:01:35;;;;;;;1999.90;999.90;;;;;;;18.06;100.00;95169.38;5011598;28;20257;-69
2021/08/27 03:04:07;;;;;;;1999.90;999.90;;;;;;;18.07;100.00;95175.41;5013908;28;20547;-67
2021/08/27 03:06:42;;;;;;;1999.90;999.90;;;;;;;18.10;100.00;95171.31;5031412;28;20260;-69
2021/08/27 03:09:10;;;;;;;1999.90;999.90;;;;;;;18.11;100.00;95175.47;5031489;28;20272;-68
2021/08/27 03:11:43;;;;;;;1999.90;999.90;;;;;;;18.15;100.00;95171.03;4992157;28;20194;-70
2021/08/27 03:14:15;;;;;;;1999.90;999.90;;;;;;;18.12;100.00;95169.09;4992100;28;20571;-70
2021/08/27 03:16:47;;;;;;;1999.90;999.90;;;;;;;18.17;100.00;95160.94;4992050;28;20198;-68
2021/08/27 03:19:20;;;;;;;1999.90;999.90;;;;;;;18.08;100.00;95159.25;4991788;28;20207;-71
2021/08/27 03:21:53;;;;;;;1999.90;999.90;;;;;;;17.98;100.00;95159.81;4992081;28;20294;-71
2021/08/27 03:24:23;;;;;;;1999.90;999.90;;;;;;;17.96;100.00;95153.41;4992228;28;20191;-71
2021/08/27 03:26:56;;;;;;;1999.90;999.90;;;;;;;17.90;100.00;95160.81;4991832;28;20199;-72
2021/08/27 03:29:26;;;;;;;1999.90;999.90;;;;;;;17.85;100.00;95163.72;4992109;28;20179;-70
2021/08/27 03:31:54;;;;;;;1999.90;999.90;;;;;;;17.89;100.00;95161.16;4991363;28;20189;-72
2021/08/27 03:34:21;;;;;;;1999.90;999.90;;;;;;;17.88;100.00;95164.91;4993626;28;20850;-74
2021/08/27 03:36:50;;;;;;;1999.90;999.90;;;;;;;17.94;100.00;95161.63;5008403;28;20966;-72
2021/08/27 03:39:19;;;;;;;1999.90;999.90;;;;;;;17.92;100.00;95163.88;5011123;28;20706;-69
2021/08/27 03:41:46;;;;;;;1999.90;999.90;;;;;;;17.94;100.00;95166.91;5011335;28;20194;-69
2021/08/27 03:44:16;;;;;;;1999.90;999.90;;;;;;;17.94;100.00;95161.63;5011286;28;20202;-71
2021/08/27 03:46:45;;;;;;;1999.90;999.90;;;;;;;17.93;100.00;95169.88;5011000;28;20198;-74
2021/08/27 03:49:15;;;;;;;1999.90;999.90;;;;;;;17.88;100.00;95170.91;5011337;28;20206;-71
2021/08/27 03:51:43;;;;;;;1999.90;999.90;;;;;;;17.90;100.00;95173.97;5010984;28;20757;-70
2021/08/27 03:54:10;;;;;;;1999.90;999.90;;;;;;;17.84;100.00;95172.72;5009550;28;20194;-75
2021/08/27 03:56:38;;;;;;;1999.90;999.90;;;;;;;17.73;100.00;95166.50;5010958;28;20202;-66
2021/08/27 03:59:06;;;;;;;1999.90;999.90;;;;;;;17.76;100.00;95167.69;5010229;28;20253;-70
2021/08/27 04:01:35;;;;;;;1999.90;999.90;;;;;;;17.83;100.00;95181.69;5007573;28;20211;-71
2021/08/27 04:04:03;;;;;;;1999.90;999.90;;;;;;;17.88;100.00;95172.81;5009103;28;20213;-71
2021/08/27 04:06:30;;;;;;;1999.90;999.90;;;;;;;17.98;100.00;95172.97;5027855;28;20209;-73
2021/08/27 04:08:57;;;;;;;1999.90;999.90;;;;;;;18.08;100.00;95169.03;5027103;28;20216;-71
2021/08/27 04:11:24;;;;;;;1999.90;999.90;;;;;;;18.13;100.00;95170.63;5009891;28;20206;-71
2021/08/27 04:13:51;;;;;;;1999.90;999.90;;;;;;;18.09;100.00;95165.28;5008582;28;20203;-73
2021/08/27 04:16:18;;;;;;;1999.90;999.90;;;;;;;18.12;100.00;95171.72;5008885;28;20634;-70
2021/08/27 04:18:45;;;;;;;1999.90;999.90;;;;;;;18.13;100.00;95168.75;5009836;28;20682;-71
2021/08/27 04:21:14;;;;;;;1999.90;999.90;;;;;;;18.14;100.00;95177.38;5009571;28;20222;-71
2021/08/27 04:23:41;;;;;;;1999.90;999.90;;;;;;;18.10;100.00;95176.56;5010024;28;20740;-71
2021/08/27 04:26:08;;;;;;;1999.90;999.90;;;;;;;18.08;100.00;95182.94;5010685;28;20614;-72
2021/08/27 04:28:36;;;;;;;1999.90;999.90;;;;;;;18.14;100.00;95174.75;5010524;28;20262;-72
2021/08/27 04:31:03;;;;;;;1999.90;999.90;;;;;;;18.20;100.00;95181.25;5011418;28;20191;-73
2021/08/27 04:33:30;;;;;;;1999.90;999.90;;;;;;;18.20;100.00;95182.03;5010864;28;20670;-70
2021/08/27 04:35:57;;;;;;;1999.90;999.90;;;;;;;18.23;100.00;95183.94;5011084;28;20210;-73
2021/08/27 04:38:25;;;;;;;1999.90;999.90;;;;;;;18.22;100.00;95187.72;5011328;28;20688;-72
2021/08/27 04:40:52;;;;;;;1999.90;999.90;;;;;;;18.32;100.00;95197.66;5010610;28;20223;-72
2021/08/27 04:43:19;;;;;;;1999.90;999.90;;;;;;;18.42;100.00;95186.56;5011041;28;20268;-72
2021/08/27 04:45:46;;;;;;;1999.90;999.90;;;;;;;18.36;100.00;95187.19;5010860;28;20194;-71
2021/08/27 04:48:13;;;;;;;1999.90;999.90;;;;;;;18.32;100.00;95191.63;5010569;28;20206;-74
2021/08/27 04:50:40;;;;;;;1999.90;999.90;;;;;;;18.33;100.00;95193.91;5010761;28;20249;-70
2021/08/27 04:53:07;;;;;;;1999.90;999.90;;;;;;;18.32;100.00;95187.13;5010592;28;20225;-70
2021/08/27 04:55:36;;;;;;;1999.90;999.90;;;;;;;18.47;100.00;95196.03;5010404;28;20202;-71
2021/08/27 04:58:03;;;;;;;1999.90;999.90;;;;;;;18.58;100.00;95199.63;5010671;28;20293;-71
2021/08/27 05:00:30;;;;;;;1999.90;999.90;;;;;;;18.56;100.00;95201.09;5009967;28;20254;-71
2021/08/27 05:02:57;;;;;;;1999.90;999.90;;;;;;;18.63;100.00;95201.94;5010382;28;20202;-71
2021/08/27 05:05:25;;;;;;;1999.90;999.90;;;;;;;18.70;100.00;95203.94;5010894;28;20207;-70
2021/08/27 05:07:52;;;;;;;1999.90;999.90;;;;;;;18.77;100.00;95202.22;5010556;28;20325;-73
2021/08/27 05:10:19;;;;;;;1999.90;999.90;;;;;;;18.82;100.00;95206.41;5010019;28;20234;-67
2021/08/27 05:12:48;;;;;;;1999.90;999.90;;;;;;;18.88;100.00;95202.34;5009825;28;20210;-69
2021/08/27 05:15:15;;;;;;;1999.90;999.90;;;;;;;18.99;100.00;95205.16;5009706;28;20206;-69
2021/08/27 05:17:42;;;;;;;1999.90;999.90;;;;;;;19.08;100.00;95216.22;5009952;28;20211;-69
2021/08/27 05:20:10;;;;;;;1999.90;999.90;;;;;;;19.03;100.00;95206.00;5009802;28;20252;-69
2021/08/27 05:22:37;;;;;;;1999.90;999.90;;;;;;;19.15;100.00;95203.13;5009877;28;20248;-69
2021/08/27 05:25:04;;;;;;;1999.90;999.90;;;;;;;19.32;100.00;95197.38;5009536;28;20202;-69
2021/08/27 05:27:31;;;;;;;1999.90;999.90;;;;;;;19.42;100.00;95204.66;5009347;28;20198;-69
2021/08/27 05:30:00;;;;;;;1999.90;999.90;;;;;;;19.49;100.00;95201.38;5009502;28;20209;-69
2021/08/27 05:32:27;;;;;;;1999.90;999.90;;;;;;;19.65;100.00;95201.97;5009874;28;20202;-68
2021/08/27 05:34:54;;;;;;;1999.90;999.90;;;;;;;19.60;100.00;95204.91;5009718;28;20210;-69
2021/08/27 05:37:22;;;;;;;1999.90;999.90;;;;;;;19.76;100.00;95219.44;5009459;28;20592;-69
2021/08/27 05:39:50;;;;;;;1999.90;999.90;;;;;;;19.78;100.00;95211.16;5011686;28;20233;-69
2021/08/27 05:42:17;;;;;;;1999.90;999.90;;;;;;;19.73;100.00;95212.25;5013697;28;20202;-68
2021/08/27 05:44:44;;;;;;;1999.90;999.90;;;;;;;19.80;100.00;95224.00;5013347;28;20210;-67
2021/08/27 05:47:13;;;;;;;1999.90;999.90;;;;;;;19.93;100.00;95217.38;5013693;28;20201;-68
2021/08/27 05:49:40;;;;;;;1999.90;999.90;;;;;;;20.05;100.00;95220.53;5013439;28;20199;-68
2021/08/27 05:52:07;;;;;;;1999.90;999.90;;;;;;;20.06;100.00;95221.31;5013685;28;20206;-67
2021/08/27 05:54:34;;;;;;;1999.90;999.90;;;;;;;20.12;100.00;95225.16;5013440;28;20206;-70
2021/08/27 05:57:01;;;;;;;1999.90;999.90;;;;;;;20.22;100.00;95223.75;5013998;28;20282;-72
2021/08/27 05:59:28;;;;;;;1999.90;999.90;;;;;;;20.32;100.00;95223.13;5014098;28;20205;-72
2021/08/27 06:01:56;;;;;;;1999.90;999.90;;;;;;;20.31;100.00;95232.16;5013867;28;20202;-72
2021/08/27 06:04:25;;;;;;;1999.90;999.90;;;;;;;20.38;100.00;95235.63;5018720;28;20243;-72
2021/08/27 06:06:53;;;;;;;1999.90;999.90;;;;;;;20.28;100.00;95228.31;5033840;28;20275;-78
2021/08/27 06:09:20;;;;;;;1999.90;999.90;;;;;;;20.18;100.00;95234.25;5032284;28;20256;-77
2021/08/27 06:11:47;;;;;;;1999.90;999.90;;;;;;;20.23;100.00;95233.16;5013284;28;20210;-70
2021/08/27 06:14:15;;;;;;;1999.90;999.90;;;;;;;20.29;100.00;95226.44;5013357;28;20206;-71
2021/08/27 06:16:42;;;;;;;1999.90;999.90;;;;;;;20.40;100.00;95225.47;5013590;28;20850;-70
2021/08/27 06:19:09;;;;;;;1999.90;999.90;;;;;;;20.54;100.00;95225.59;5013478;28;20221;-71
2021/08/27 06:21:39;;;;;;;1999.90;999.90;;;;;;;20.83;100.00;95220.56;5013580;28;20237;-70
2021/08/27 06:24:07;;;;;;;1999.90;999.90;;;;;;;20.99;100.00;95221.84;5013326;28;20627;-70
2021/08/27 06:26:34;;;;;;;1999.90;999.90;;;;;;;21.29;98.21;95216.41;5013342;28;20206;-70
2021/08/27 06:29:03;;;;;;;1999.90;999.90;;;;;;;21.14;97.18;95217.44;5013058;28;20201;-68
2021/08/27 06:31:31;;;;;;;1999.90;999.90;;;;;;;21.34;100.00;95216.06;5012896;28;20198;-69
2021/08/27 06:33:58;;;;;;;1999.90;999.90;;;;;;;21.53;99.11;95209.00;5013038;28;20198;-70
2021/08/27 06:36:25;;;;;;;1999.90;999.90;;;;;;;21.45;100.00;95214.25;5013220;28;20213;-70
2021/08/27 06:38:54;;;;;;;1999.90;999.90;;;;;;;21.61;100.00;95206.03;5012852;28;20289;-67
2021/08/27 06:41:21;;;;;;;1999.90;999.90;;;;;;;21.85;98.51;95207.28;5013029;28;20222;-71
2021/08/27 06:43:48;;;;;;;1999.90;999.90;;;;;;;21.85;98.08;95207.28;5012909;28;20198;-71
2021/08/27 06:46:18;;;;;;;1999.90;999.90;;;;;;;21.55;98.05;95215.44;5012722;28;20202;-71
2021/08/27 06:48:46;;;;;;;1999.90;999.90;;;;;;;21.78;98.54;95213.28;5012337;28;20682;-68
2021/08/27 06:51:13;;;;;;;1999.90;999.90;;;;;;;22.12;94.30;95219.09;5011845;28;20670;-68
2021/08/27 06:53:40;;;;;;;1999.90;999.90;;;;;;;22.20;97.01;95215.38;5012048;28;20624;-67
2021/08/27 06:56:09;;;;;;;1999.90;999.90;;;;;;;21.88;98.44;95225.78;5012189;28;20206;-67
2021/08/27 06:58:36;;;;;;;1999.90;999.90;;;;;;;21.62;99.23;95217.38;5012108;28;20202;-67
2021/08/27 07:01:04;;;;;;;1999.90;999.90;;;;;;;21.89;100.00;95221.25;5011679;28;20779;-68
2021/08/27 07:03:31;;;;;;;1999.90;999.90;;;;;;;22.20;99.60;95228.59;5012362;28;20333;-68
2021/08/27 07:05:58;;;;;;;1999.90;999.90;;;;;;;22.37;96.45;95235.06;5029722;28;20699;-75
2021/08/27 07:08:26;;;;;;;1999.90;999.90;;;;;;;22.15;96.15;95239.56;5031953;28;20197;-69
2021/08/27 07:10:53;;;;;;;1999.90;999.90;;;;;;;21.95;98.88;95233.03;5017704;28;20242;-69
2021/08/27 07:13:21;;;;;;;1999.90;999.90;;;;;;;22.45;96.68;95239.25;5012312;28;20281;-69
2021/08/27 07:15:50;;;;;;;1999.90;999.90;;;;;;;22.22;97.32;95244.84;5011807;28;20206;-70
2021/08/27 07:18:17;;;;;;;1999.90;999.90;;;;;;;22.62;97.56;95251.00;5011755;28;20567;-70
2021/08/27 07:20:44;;;;;;;1999.90;999.90;;;;;;;22.67;96.15;95250.63;5012104;28;20618;-71
2021/08/27 07:23:13;;;;;;;1999.90;999.90;;;;;;;22.41;95.04;95251.75;5012025;28;20621;-69
2021/08/27 07:25:41;;;;;;;1999.90;999.90;;;;;;;22.33;95.99;95252.84;5011470;28;20202;-70
2021/08/27 07:28:08;;;;;;;1999.90;999.90;;;;;;;22.46;96.05;95258.56;5011723;28;20206;-70
2021/08/27 07:30:37;;;;;;;1999.90;999.90;;;;;;;22.92;90.80;95263.94;5012062;28;20225;-71
2021/08/27 07:33:04;;;;;;;1999.90;999.90;;;;;;;22.94;92.60;95267.00;5011728;28;20682;-71
2021/08/27 07:35:31;;;;;;;1999.90;999.90;;;;;;;23.18;91.16;95255.63;5011539;28;20209;-71
2021/08/27 07:37:59;;;;;;;1999.90;999.90;;;;;;;23.45;88.26;95264.75;5011828;28;20624;-70
2021/08/27 07:40:26;;;;;;;1999.90;999.90;;;;;;;23.76;87.20;95263.16;5011386;28;20672;-71
2021/08/27 07:42:53;;;;;;;1999.90;999.90;;;;;;;23.96;86.78;95263.50;5011379;28;20205;-70
2021/08/27 07:45:20;;;;;;;1999.90;999.90;;;;;;;24.19;84.92;95268.38;5011510;28;20249;-69
2021/08/27 07:47:49;;;;;;;1999.90;999.90;;;;;;;24.38;82.42;95267.91;5011553;28;20198;-70
2021/08/27 07:50:17;;;;;;;1999.90;999.90;;;;;;;24.33;84.15;95269.06;5011702;28;20278;-69
2021/08/27 07:52:44;;;;;;;1999.90;999.90;;;;;;;24.08;85.23;95264.94;5011964;28;20195;-78
2021/08/27 07:55:11;;;;;;;1999.90;999.90;;;;;;;24.21;85.65;95260.78;5011559;28;20201;-72
2021/08/27 07:57:43;;;;;;;1999.90;999.90;;;;;;;24.44;81.09;95255.72;5011614;28;20260;-74
2021/08/27 08:00:11;;;;;;;1999.90;999.90;;;;;;;24.52;83.69;95256.44;5011602;28;20210;-76
2021/08/27 08:02:39;;;;;;;1999.90;999.90;;;;;;;24.39;82.57;95258.78;5010887;28;20198;-74
2021/08/27 08:05:08;;;;;;;1999.90;999.90;;;;;;;24.37;86.02;95247.78;5022649;28;20194;-75
2021/08/27 08:07:36;;;;;;;1999.90;999.90;;;;;;;24.13;84.82;95254.69;5031549;28;20623;-75
2021/08/27 08:10:04;;;;;;;1999.90;999.90;;;;;;;24.24;84.88;95257.34;5024230;28;20291;-75
2021/08/27 08:12:31;;;;;;;1999.90;999.90;;;;;;;24.51;84.40;95262.91;5011831;28;20198;-75
2021/08/27 08:14:59;;;;;;;1999.90;999.90;;;;;;;24.67;84.00;95263.19;5011348;28;20648;-75
2021/08/27 08:17:26;;;;;;;1999.90;999.90;;;;;;;24.83;82.27;95258.16;5011769;28;20732;-75
2021/08/27 08:19:53;;;;;;;1999.90;999.90;;;;;;;24.85;82.19;95253.22;5011598;28;20202;-76
2021/08/27 08:22:21;;;;;;;1999.90;999.90;;;;;;;24.73;81.98;95251.00;5011366;28;20320;-77
2021/08/27 08:24:49;;;;;;;1999.90;999.90;;;;;;;24.68;81.19;95246.84;5011384;28;20206;-76
2021/08/27 08:27:16;;;;;;;1999.90;999.90;;;;;;;24.26;82.51;95255.78;5009088;28;20198;-75
2021/08/27 08:29:43;;;;;;;1999.90;999.90;;;;;;;24.59;84.26;95248.44;5011419;28;20241;-74
2021/08/27 08:32:11;;;;;;;1999.90;999.90;;;;;;;24.69;84.64;95252.91;5011306;28;20194;-72
2021/08/27 08:34:38;;;;;;;1999.90;999.90;;;;;;;24.25;82.25;95245.56;5010350;28;20206;-71
2021/08/27 08:37:07;;;;;;;1999.90;999.90;;;;;;;24.62;80.93;95245.75;5010793;28;20260;-75
2021/08/27 08:39:37;;;;;;;1999.90;999.90;;;;;;;25.03;79.71;95245.13;5010615;28;20674;-76
2021/08/27 08:42:05;;;;;;;1999.90;999.90;;;;;;;25.08;82.62;95242.03;5009987;28;20218;-75
2021/08/27 08:44:33;;;;;;;1999.90;999.90;;;;;;;25.20;78.43;95244.97;5010492;28;20198;-75
2021/08/27 08:47:01;;;;;;;1999.90;999.90;;;;;;;25.45;77.66;95255.41;5011123;28;20806;-75
2021/08/27 08:49:30;;;;;;;1999.90;999.90;;;;;;;25.40;76.19;95258.50;5010809;28;20207;-75
2021/08/27 08:52:00;;;;;;;1999.90;999.90;;;;;;;25.40;77.46;95257.75;5011113;28;20194;-74
2021/08/27 08:54:27;;;;;;;1999.90;999.90;;;;;;;25.45;80.70;95247.44;5010503;28;20749;-76
2021/08/27 08:56:57;;;;;;;1999.90;999.90;;;;;;;25.61;82.07;95252.97;5010396;28;20206;-75
2021/08/27 08:59:24;;;;;;;1999.90;999.90;;;;;;;25.76;77.04;95255.50;5010594;28;20671;-75
2021/08/27 09:01:51;;;;;;;1999.90;999.90;;;;;;;25.57;75.53;95252.25;5010358;28;20591;-74
2021/08/27 09:04:18;;;;;;;1999.90;999.90;;;;;;;25.57;75.83;95256.81;5014953;28;20202;-75
2021/08/27 09:06:46;;;;;;;1999.90;999.90;;;;;;;25.58;75.59;95250.34;5030125;28;20197;-75
2021/08/27 09:09:29;;;;;;;1999.90;999.90;;;;;;;25.67;77.55;95248.75;5030014;28;20226;-75
2021/08/27 09:11:57;;;;;;;1999.90;999.90;;;;;;;25.76;75.91;95250.94;5010986;28;20205;-75
2021/08/27 09:14:29;;;;;;;1999.90;999.90;;;;;;;25.82;74.70;95240.59;5010477;28;20206;-75
2021/08/27 09:17:03;;;;;;;1999.90;999.90;;;;;;;25.82;76.59;95236.03;5010692;28;20186;-76
2021/08/27 09:19:52;;;;;;;1999.90;999.90;;;;;;;26.05;75.10;95238.81;5010434;28;20197;-76
2021/08/27 09:22:20;;;;;;;1999.90;999.90;;;;;;;26.09;76.51;95222.78;5010422;28;20229;-75
2021/08/27 09:25:04;;;;;;;1999.90;999.90;;;;;;;25.94;73.05;95222.22;5010405;28;20195;-76
2021/08/27 09:27:35;;;;;;;1999.90;999.90;;;;;;;25.70;74.05;95234.63;5010254;28;20197;-75
2021/08/27 09:30:09;;;;;;;1999.90;999.90;;;;;;;25.67;74.49;95219.47;5010113;28;20244;-74
2021/08/27 09:32:36;;;;;;;1999.90;999.90;;;;;;;25.71;73.96;95216.75;5010523;28;20661;-74
2021/08/27 09:35:10;;;;;;;1999.90;999.90;;;;;;;25.85;75.59;95213.19;5010421;28;20208;-76
2021/08/27 09:37:43;;;;;;;1999.90;999.90;;;;;;;26.10;73.28;95213.66;5010428;28;20218;-75
2021/08/27 09:40:14;;;;;;;1999.90;999.90;;;;;;;25.96;74.45;95211.91;5010397;28;20207;-75
2021/08/27 09:42:44;;;;;;;1999.90;999.90;;;;;;;25.86;74.92;95204.78;5021238;28;20302;-75
2021/08/27 09:45:12;;;;;;;1999.90;999.90;;;;;;;25.94;75.09;95200.91;5010368;28;20206;-74
2021/08/27 09:47:56;;;;;;;1999.90;999.90;;;;;;;26.21;73.98;95198.25;5010236;28;20202;-75
2021/08/27 09:50:27;;;;;;;1999.90;999.90;;;;;;;26.37;72.28;95195.03;5010014;28;20186;-75
2021/08/27 09:52:57;;;;;;;1999.90;999.90;;;;;;;26.33;73.34;95200.44;5010380;28;20252;-75
2021/08/27 09:55:25;;;;;;;1999.90;999.90;;;;;;;26.38;73.33;95191.97;5010513;28;20190;-75
2021/08/27 09:58:02;;;;;;;1999.90;999.90;;;;;;;26.64;72.66;95187.81;5010278;28;20209;-74
2021/08/27 10:00:29;;;;;;;1999.90;999.90;;;;;;;26.90;74.96;95181.69;5010119;28;20934;-75
2021/08/27 10:02:59;;;;;;;1999.90;999.90;;;;;;;26.68;71.44;95185.09;5009893;28;20288;-74
2021/08/27 10:05:38;;;;;;;1999.90;999.90;;;;;;;26.79;70.13;95186.44;5009897;28;20256;-74
2021/08/27 10:08:18;;;;;;;1999.90;999.90;;;;;;;26.75;67.68;95182.31;5009974;28;20190;-71
2021/08/27 10:10:46;;;;;;;1999.90;999.90;;;;;;;26.55;69.17;95177.63;4996005;28;20227;-74
2021/08/27 10:13:14;;;;;;;1999.90;999.90;;;;;;;26.64;71.93;95179.81;4990760;28;20199;-73
2021/08/27 10:15:42;;;;;;;1999.90;999.90;;;;;;;26.56;70.58;95181.81;4990027;28;20206;-74
2021/08/27 10:18:11;;;;;;;1999.90;999.90;;;;;;;26.88;71.33;95180.59;4990578;28;20634;-74
2021/08/27 10:20:39;;;;;;;1999.90;999.90;;;;;;;27.25;68.31;95176.91;4990128;28;20200;-74
2021/08/27 10:23:08;;;;;;;1999.90;999.90;;;;;;;27.51;66.99;95176.09;4990436;28;20227;-74
2021/08/27 10:25:36;;;;;;;1999.90;999.90;;;;;;;27.44;67.13;95172.78;4992086;28;20212;-75
2021/08/27 10:28:03;;;;;;;1999.90;999.90;;;;;;;27.85;65.91;95167.06;4994045;28;20238;-74
2021/08/27 10:30:58;;;;;;;1999.90;999.90;;;;;;;27.68;64.13;95169.69;4993821;28;20207;-74
2021/08/27 10:34:01;;;;;;;1999.90;999.90;;;;;;;27.86;64.78;95165.88;4993858;28;20198;-74
2021/08/27 10:36:47;;;;;;;1999.90;999.90;;;;;;;27.78;63.76;95167.97;4994393;28;20191;-74
2021/08/27 10:39:33;;;;;;;1999.90;999.90;;;;;;;27.77;64.41;95158.44;4993796;28;20207;-73
2021/08/27 10:42:00;;;;;;;1999.90;999.90;;;;;;;27.73;65.75;95150.50;4993645;28;20246;-74
2021/08/27 10:44:46;;;;;;;1999.90;999.90;;;;;;;28.14;63.62;95149.31;4993545;28;20205;-73
2021/08/27 10:47:14;;;;;;;1999.90;999.90;;;;;;;28.63;60.03;95150.88;4993570;28;20196;-73
2021/08/27 10:49:59;;;;;;;1999.90;999.90;;;;;;;28.33;57.96;95147.75;4997109;28;20202;-74
2021/08/27 10:52:28;;;;;;;1999.90;999.90;;;;;;;27.84;59.86;95142.28;5013317;28;20193;-74
2021/08/27 10:55:16;;;;;;;1999.90;999.90;;;;;;;27.89;60.47;95141.78;5013432;28;20195;-74
2021/08/27 10:57:53;;;;;;;1999.90;999.90;;;;;;;27.93;60.74;95134.44;5012999;28;20701;-74
2021/08/27 11:00:40;;;;;;;1999.90;999.90;;;;;;;28.10;60.02;95138.66;5013341;28;20186;-75